sensor_id;sensor_type;location;lat;lon;timestamp;P1;durP1;ratioP1;P2;durP2;ratioP2
74876;SDS011;64660;44.786;37.680;2022-12-29T03:48:52;11.77;;;3.50;;
74876;SDS011;64660;44.786;37.680;2022-12-29T03:51:21;12.45;;;4.35;;
74876;SDS011;64660;44.786;37.680;2022-12-29T03:53:50;20.92;;;5.20;;
74876;SDS011;64660;44.786;37.680;2022-12-29T03:56:19;15.25;;;3.90;;
74876;SDS011;64660;44.786;37.680;2022-12-29T03:58:50;21.35;;;5.32;;
74876;SDS011;64660;44.786;37.680;2022-12-29T04:01:24;23.87;;;5.07;;
74876;SDS011;64660;44.786;37.680;2022-12-29T04:03:52;23.10;;;5.07;;
74876;SDS011;64660;44.786;37.680;2022-12-29T04:06:20;15.68;;;6.05;;
74876;SDS011;64660;44.786;37.680;2022-12-29T04:08:53;17.73;;;5.03;;
74876;SDS011;64660;44.786;37.680;2022-12-29T04:11:22;8.95;;;3.50;;
74876;SDS011;64660;44.786;37.680;2022-12-29T04:13:52;19.67;;;6.63;;
74876;SDS011;64660;44.786;37.680;2022-12-29T04:16:24;24.80;;;5.05;;
74876;SDS011;64660;44.786;37.680;2022-12-29T04:18:53;10.98;;;3.88;;
74876;SDS011;64660;44.786;37.680;2022-12-29T04:21:22;20.88;;;4.40;;
74876;SDS011;64660;44.786;37.680;2022-12-29T04:23:50;10.68;;;3.17;;
74876;SDS011;64660;44.786;37.680;2022-12-29T04:26:19;11.77;;;3.23;;
74876;SDS011;64660;44.786;37.680;2022-12-29T04:29:19;12.57;;;3.13;;
74876;SDS011;64660;44.786;37.680;2022-12-29T04:32:04;23.90;;;4.63;;
74876;SDS011;64660;44.786;37.680;2022-12-29T04:34:34;11.57;;;3.72;;
74876;SDS011;64660;44.786;37.680;2022-12-29T04:37:01;10.65;;;3.85;;
74876;SDS011;64660;44.786;37.680;2022-12-29T04:39:29;15.50;;;3.40;;
74876;SDS011;64660;44.786;37.680;2022-12-29T04:41:57;15.50;;;4.18;;
74876;SDS011;64660;44.786;37.680;2022-12-29T04:44:25;13.90;;;3.53;;
74876;SDS011;64660;44.786;37.680;2022-12-29T04:47:13;12.50;;;3.97;;
74876;SDS011;64660;44.786;37.680;2022-12-29T04:50:16;14.25;;;3.20;;
74876;SDS011;64660;44.786;37.680;2022-12-29T04:52:52;10.10;;;4.60;;
74876;SDS011;64660;44.786;37.680;2022-12-29T04:55:22;9.13;;;2.90;;
74876;SDS011;64660;44.786;37.680;2022-12-29T04:57:49;10.52;;;2.58;;
74876;SDS011;64660;44.786;37.680;2022-12-29T05:00:20;13.38;;;3.47;;
74876;SDS011;64660;44.786;37.680;2022-12-29T05:02:48;24.52;;;5.45;;
74876;SDS011;64660;44.786;37.680;2022-12-29T05:05:15;13.90;;;4.43;;
74876;SDS011;64660;44.786;37.680;2022-12-29T05:07:48;12.32;;;4.28;;
74876;SDS011;64660;44.786;37.680;2022-12-29T05:10:19;13.73;;;3.13;;
74876;SDS011;64660;44.786;37.680;2022-12-29T05:12:50;18.25;;;4.38;;
74876;SDS011;64660;44.786;37.680;2022-12-29T05:15:19;20.17;;;4.90;;
74876;SDS011;64660;44.786;37.680;2022-12-29T05:17:45;12.00;;;4.37;;
74876;SDS011;64660;44.786;37.680;2022-12-29T05:20:12;19.90;;;6.13;;
74876;SDS011;64660;44.786;37.680;2022-12-29T05:22:41;28.58;;;5.65;;
74876;SDS011;64660;44.786;37.680;2022-12-29T05:25:10;22.23;;;5.50;;
74876;SDS011;64660;44.786;37.680;2022-12-29T05:27:59;19.08;;;5.68;;
74876;SDS011;64660;44.786;37.680;2022-12-29T05:30:41;17.63;;;6.47;;
74876;SDS011;64660;44.786;37.680;2022-12-29T05:33:09;24.80;;;6.95;;
74876;SDS011;64660;44.786;37.680;2022-12-29T05:35:39;12.57;;;3.88;;
74876;SDS011;64660;44.786;37.680;2022-12-29T05:38:08;14.43;;;5.45;;
74876;SDS011;64660;44.786;37.680;2022-12-29T05:40:35;22.42;;;7.15;;
74876;SDS011;64660;44.786;37.680;2022-12-29T05:43:09;21.13;;;7.10;;
74876;SDS011;64660;44.786;37.680;2022-12-29T05:45:53;23.92;;;8.55;;
74876;SDS011;64660;44.786;37.680;2022-12-29T05:48:44;20.85;;;7.65;;
74876;SDS011;64660;44.786;37.680;2022-12-29T05:51:25;25.40;;;9.07;;
74876;SDS011;64660;44.786;37.680;2022-12-29T05:53:53;22.00;;;8.32;;
74876;SDS011;64660;44.786;37.680;2022-12-29T05:56:23;22.10;;;7.40;;
74876;SDS011;64660;44.786;37.680;2022-12-29T05:58:59;23.52;;;7.32;;
74876;SDS011;64660;44.786;37.680;2022-12-29T06:01:29;30.73;;;7.75;;
74876;SDS011;64660;44.786;37.680;2022-12-29T06:03:59;18.88;;;5.93;;
74876;SDS011;64660;44.786;37.680;2022-12-29T06:06:30;24.52;;;9.13;;
74876;SDS011;64660;44.786;37.680;2022-12-29T06:08:59;24.07;;;9.53;;
74876;SDS011;64660;44.786;37.680;2022-12-29T06:11:29;29.55;;;8.70;;
74876;SDS011;64660;44.786;37.680;2022-12-29T06:14:00;25.20;;;9.13;;
74876;SDS011;64660;44.786;37.680;2022-12-29T06:16:29;25.33;;;8.90;;
74876;SDS011;64660;44.786;37.680;2022-12-29T06:19:01;32.05;;;8.40;;
74876;SDS011;64660;44.786;37.680;2022-12-29T06:21:31;23.57;;;9.33;;
74876;SDS011;64660;44.786;37.680;2022-12-29T06:24:02;18.58;;;6.03;;
74876;SDS011;64660;44.786;37.680;2022-12-29T06:26:31;11.18;;;4.22;;
74876;SDS011;64660;44.786;37.680;2022-12-29T06:29:00;12.35;;;4.95;;
74876;SDS011;64660;44.786;37.680;2022-12-29T06:31:30;11.52;;;4.68;;
74876;SDS011;64660;44.786;37.680;2022-12-29T06:33:59;15.20;;;4.40;;
74876;SDS011;64660;44.786;37.680;2022-12-29T06:36:29;13.85;;;5.60;;
74876;SDS011;64660;44.786;37.680;2022-12-29T06:38:58;18.92;;;5.82;;
74876;SDS011;64660;44.786;37.680;2022-12-29T06:41:24;15.40;;;5.28;;
74876;SDS011;64660;44.786;37.680;2022-12-29T06:44:17;17.67;;;6.00;;
74876;SDS011;64660;44.786;37.680;2022-12-29T06:46:59;20.37;;;4.53;;
74876;SDS011;64660;44.786;37.680;2022-12-29T06:49:29;22.45;;;5.55;;
74876;SDS011;64660;44.786;37.680;2022-12-29T06:51:55;12.05;;;5.50;;
74876;SDS011;64660;44.786;37.680;2022-12-29T06:54:24;17.67;;;5.82;;
74876;SDS011;64660;44.786;37.680;2022-12-29T06:56:52;28.55;;;5.63;;
74876;SDS011;64660;44.786;37.680;2022-12-29T06:59:20;20.87;;;6.33;;
74876;SDS011;64660;44.786;37.680;2022-12-29T07:01:47;15.82;;;6.53;;
74876;SDS011;64660;44.786;37.680;2022-12-29T07:04:14;17.10;;;7.45;;
74876;SDS011;64660;44.786;37.680;2022-12-29T07:06:42;16.23;;;6.15;;
74876;SDS011;64660;44.786;37.680;2022-12-29T07:09:11;33.42;;;10.82;;
